sensor_id;sensor_type;location;lat;lon;timestamp;temperature;humidity
16118;DHT22;8163;50.118;5.342;2023-08-21T00:00:15;21.90;60.20
16118;DHT22;8163;50.118;5.342;2023-08-21T00:02:42;21.90;60.20
16118;DHT22;8163;50.118;5.342;2023-08-21T00:05:09;21.90;60.30
16118;DHT22;8163;50.118;5.342;2023-08-21T00:07:36;21.90;60.50
16118;DHT22;8163;50.118;5.342;2023-08-21T00:10:04;21.90;60.90
16118;DHT22;8163;50.118;5.342;2023-08-21T00:12:31;21.90;61.10
16118;DHT22;8163;50.118;5.342;2023-08-21T00:14:59;21.90;61.10
16118;DHT22;8163;50.118;5.342;2023-08-21T00:17:26;21.90;61.10
16118;DHT22;8163;50.118;5.342;2023-08-21T00:19:53;21.90;61.20
16118;DHT22;8163;50.118;5.342;2023-08-21T00:22:20;21.90;61.20
16118;DHT22;8163;50.118;5.342;2023-08-21T00:24:47;21.80;61.10
16118;DHT22;8163;50.118;5.342;2023-08-21T00:27:14;21.80;61.20
16118;DHT22;8163;50.118;5.342;2023-08-21T00:29:42;21.80;61.30
16118;DHT22;8163;50.118;5.342;2023-08-21T00:32:10;21.80;61.50
16118;DHT22;8163;50.118;5.342;2023-08-21T00:34:39;21.70;61.40
16118;DHT22;8163;50.118;5.342;2023-08-21T00:37:06;21.70;61.40
16118;DHT22;8163;50.118;5.342;2023-08-21T00:39:34;21.70;61.50
16118;DHT22;8163;50.118;5.342;2023-08-21T00:42:02;21.70;61.50
16118;DHT22;8163;50.118;5.342;2023-08-21T00:44:29;21.60;61.40
16118;DHT22;8163;50.118;5.342;2023-08-21T00:46:56;21.60;61.50
16118;DHT22;8163;50.118;5.342;2023-08-21T00:49:25;21.50;61.60
16118;DHT22;8163;50.118;5.342;2023-08-21T00:51:53;21.50;61.90
16118;DHT22;8163;50.118;5.342;2023-08-21T00:54:20;21.50;62.00
16118;DHT22;8163;50.118;5.342;2023-08-21T00:56:47;21.50;62.10
16118;DHT22;8163;50.118;5.342;2023-08-21T00:59:16;21.50;62.20
16118;DHT22;8163;50.118;5.342;2023-08-21T01:01:43;21.50;62.30
16118;DHT22;8163;50.118;5.342;2023-08-21T01:04:11;21.50;62.30
16118;DHT22;8163;50.118;5.342;2023-08-21T01:06:39;21.50;62.50
16118;DHT22;8163;50.118;5.342;2023-08-21T01:09:11;21.40;62.50
16118;DHT22;8163;50.118;5.342;2023-08-21T01:11:45;21.40;62.50
16118;DHT22;8163;50.118;5.342;2023-08-21T01:14:21;21.40;62.60
16118;DHT22;8163;50.118;5.342;2023-08-21T01:16:54;21.40;62.90
16118;DHT22;8163;50.118;5.342;2023-08-21T01:19:31;21.40;63.20
16118;DHT22;8163;50.118;5.342;2023-08-21T01:22:02;21.40;63.40
16118;DHT22;8163;50.118;5.342;2023-08-21T01:24:31;21.40;63.40
16118;DHT22;8163;50.118;5.342;2023-08-21T01:26:59;21.50;63.60
16118;DHT22;8163;50.118;5.342;2023-08-21T01:29:26;21.50;63.60
16118;DHT22;8163;50.118;5.342;2023-08-21T01:32:00;21.40;63.50
16118;DHT22;8163;50.118;5.342;2023-08-21T01:34:29;21.40;63.50
16118;DHT22;8163;50.118;5.342;2023-08-21T01:36:59;21.30;63.50
16118;DHT22;8163;50.118;5.342;2023-08-21T01:39:27;21.30;63.60
16118;DHT22;8163;50.118;5.342;2023-08-21T01:41:56;21.30;63.70
16118;DHT22;8163;50.118;5.342;2023-08-21T01:44:23;21.30;63.90
16118;DHT22;8163;50.118;5.342;2023-08-21T01:46:52;21.30;63.90
16118;DHT22;8163;50.118;5.342;2023-08-21T01:49:19;21.20;63.70
16118;DHT22;8163;50.118;5.342;2023-08-21T01:51:46;21.20;63.80
16118;DHT22;8163;50.118;5.342;2023-08-21T01:54:13;21.20;63.80
16118;DHT22;8163;50.118;5.342;2023-08-21T01:56:40;21.20;63.80
16118;DHT22;8163;50.118;5.342;2023-08-21T01:59:08;21.20;63.80
16118;DHT22;8163;50.118;5.342;2023-08-21T02:01:35;21.10;63.60
16118;DHT22;8163;50.118;5.342;2023-08-21T02:04:02;21.10;63.70
16118;DHT22;8163;50.118;5.342;2023-08-21T02:06:29;21.10;63.90
16118;DHT22;8163;50.118;5.342;2023-08-21T02:08:57;21.10;64.00
16118;DHT22;8163;50.118;5.342;2023-08-21T02:11:24;21.10;64.10
16118;DHT22;8163;50.118;5.342;2023-08-21T02:13:51;21.00;64.40
16118;DHT22;8163;50.118;5.342;2023-08-21T02:16:20;21.00;64.50
16118;DHT22;8163;50.118;5.342;2023-08-21T02:18:47;21.00;64.50
16118;DHT22;8163;50.118;5.342;2023-08-21T02:21:14;21.00;64.60
16118;DHT22;8163;50.118;5.342;2023-08-21T02:23:41;21.00;64.60
16118;DHT22;8163;50.118;5.342;2023-08-21T02:26:08;21.00;64.60
16118;DHT22;8163;50.118;5.342;2023-08-21T02:28:35;21.00;64.40
16118;DHT22;8163;50.118;5.342;2023-08-21T02:31:02;21.00;64.50
16118;DHT22;8163;50.118;5.342;2023-08-21T02:33:30;21.00;64.60
16118;DHT22;8163;50.118;5.342;2023-08-21T02:35:58;20.90;64.80
16118;DHT22;8163;50.118;5.342;2023-08-21T02:38:26;20.90;64.90
16118;DHT22;8163;50.118;5.342;2023-08-21T02:40:53;20.90;64.90
16118;DHT22;8163;50.118;5.342;2023-08-21T02:43:20;20.90;64.90
16118;DHT22;8163;50.118;5.342;2023-08-21T02:45:48;20.90;64.90
16118;DHT22;8163;50.118;5.342;2023-08-21T02:48:15;20.90;64.90
16118;DHT22;8163;50.118;5.342;2023-08-21T02:50:44;20.90;64.80
16118;DHT22;8163;50.118;5.342;2023-08-21T02:53:11;20.80;64.80
16118;DHT22;8163;50.118;5.342;2023-08-21T02:55:38;20.80;64.70
16118;DHT22;8163;50.118;5.342;2023-08-21T02:58:05;20.80;64.80
16118;DHT22;8163;50.118;5.342;2023-08-21T03:00:32;20.90;64.80
16118;DHT22;8163;50.118;5.342;2023-08-21T03:02:59;20.80;64.80
16118;DHT22;8163;50.118;5.342;2023-08-21T03:05:26;20.80;64.90
16118;DHT22;8163;50.118;5.342;2023-08-21T03:07:54;20.80;65.00
16118;DHT22;8163;50.118;5.342;2023-08-21T03:10:21;20.90;65.30
16118;DHT22;8163;50.118;5.342;2023-08-21T03:12:49;20.80;65.00
16118;DHT22;8163;50.118;5.342;2023-08-21T03:15:16;20.80;65.00
16118;DHT22;8163;50.118;5.342;2023-08-21T03:17:43;20.70;64.80
16118;DHT22;8163;50.118;5.342;2023-08-21T03:20:10;20.70;65.00
16118;DHT22;8163;50.118;5.342;2023-08-21T03:22:38;20.60;65.00
16118;DHT22;8163;50.118;5.342;2023-08-21T03:25:07;20.60;65.20
16118;DHT22;8163;50.118;5.342;2023-08-21T03:27:34;20.60;65.20
16118;DHT22;8163;50.118;5.342;2023-08-21T03:30:06;20.50;65.10
16118;DHT22;8163;50.118;5.342;2023-08-21T03:32:33;20.50;65.20
16118;DHT22;8163;50.118;5.342;2023-08-21T03:35:01;20.40;65.30
16118;DHT22;8163;50.118;5.342;2023-08-21T03:37:28;20.40;65.30
16118;DHT22;8163;50.118;5.342;2023-08-21T03:39:56;20.40;65.50
16118;DHT22;8163;50.118;5.342;2023-08-21T03:42:24;20.30;65.50
16118;DHT22;8163;50.118;5.342;2023-08-21T03:44:51;20.30;65.60
16118;DHT22;8163;50.118;5.342;2023-08-21T03:47:18;20.30;65.70
16118;DHT22;8163;50.118;5.342;2023-08-21T03:49:45;20.20;65.80
16118;DHT22;8163;50.118;5.342;2023-08-21T03:52:13;20.20;66.00
16118;DHT22;8163;50.118;5.342;2023-08-21T03:54:41;20.20;66.00
16118;DHT22;8163;50.118;5.342;2023-08-21T03:57:08;20.20;66.00
16118;DHT22;8163;50.118;5.342;2023-08-21T03:59:36;20.20;66.10
16118;DHT22;8163;50.118;5.342;2023-08-21T04:02:03;20.20;66.10
16118;DHT22;8163;50.118;5.342;2023-08-21T04:04:30;20.20;66.20
16118;DHT22;8163;50.118;5.342;2023-08-21T04:06:57;20.10;66.10
16118;DHT22;8163;50.118;5.342;2023-08-21T04:09:24;20.10;66.00
16118;DHT22;8163;50.118;5.342;2023-08-21T04:11:51;20.00;65.90
16118;DHT22;8163;50.118;5.342;2023-08-21T04:14:18;19.90;65.90
16118;DHT22;8163;50.118;5.342;2023-08-21T04:16:47;19.90;66.20
16118;DHT22;8163;50.118;5.342;2023-08-21T04:19:14;19.80;66.10
16118;DHT22;8163;50.118;5.342;2023-08-21T04:21:41;19.90;66.30
16118;DHT22;8163;50.118;5.342;2023-08-21T04:24:08;19.90;66.60
16118;DHT22;8163;50.118;5.342;2023-08-21T04:26:35;19.90;66.70
16118;DHT22;8163;50.118;5.342;2023-08-21T04:29:02;19.90;66.70
16118;DHT22;8163;50.118;5.342;2023-08-21T04:31:29;19.90;66.70
16118;DHT22;8163;50.118;5.342;2023-08-21T04:33:57;20.00;66.80
16118;DHT22;8163;50.118;5.342;2023-08-21T04:36:24;19.90;66.60
16118;DHT22;8163;50.118;5.342;2023-08-21T04:38:51;19.90;66.70
16118;DHT22;8163;50.118;5.342;2023-08-21T04:41:19;19.90;66.60
16118;DHT22;8163;50.118;5.342;2023-08-21T04:43:46;19.90;66.40
16118;DHT22;8163;50.118;5.342;2023-08-21T04:46:14;19.80;66.30
16118;DHT22;8163;50.118;5.342;2023-08-21T04:48:41;19.90;66.30
16118;DHT22;8163;50.118;5.342;2023-08-21T04:51:09;19.80;66.30
16118;DHT22;8163;50.118;5.342;2023-08-21T04:53:36;19.80;66.40
16118;DHT22;8163;50.118;5.342;2023-08-21T04:56:03;19.80;66.40
16118;DHT22;8163;50.118;5.342;2023-08-21T04:58:30;19.80;66.40
16118;DHT22;8163;50.118;5.342;2023-08-21T05:00:57;19.80;66.40
16118;DHT22;8163;50.118;5.342;2023-08-21T05:03:26;19.80;66.50
16118;DHT22;8163;50.118;5.342;2023-08-21T05:05:53;19.80;66.50
16118;DHT22;8163;50.118;5.342;2023-08-21T05:08:23;19.80;66.50
16118;DHT22;8163;50.118;5.342;2023-08-21T05:10:54;19.70;66.40
16118;DHT22;8163;50.118;5.342;2023-08-21T05:13:21;19.70;66.70
16118;DHT22;8163;50.118;5.342;2023-08-21T05:15:51;19.70;66.70
16118;DHT22;8163;50.118;5.342;2023-08-21T05:18:19;19.70;66.80
16118;DHT22;8163;50.118;5.342;2023-08-21T05:20:48;19.70;66.90
16118;DHT22;8163;50.118;5.342;2023-08-21T05:23:17;19.60;66.80
16118;DHT22;8163;50.118;5.342;2023-08-21T05:25:46;19.70;67.00
16118;DHT22;8163;50.118;5.342;2023-08-21T05:28:13;19.70;66.90
16118;DHT22;8163;50.118;5.342;2023-08-21T05:30:41;19.70;67.70
16118;DHT22;8163;50.118;5.342;2023-08-21T05:33:08;19.70;66.90
16118;DHT22;8163;50.118;5.342;2023-08-21T05:35:35;19.80;66.90
16118;DHT22;8163;50.118;5.342;2023-08-21T05:38:02;20.00;67.30
16118;DHT22;8163;50.118;5.342;2023-08-21T05:40:30;20.20;67.60
16118;DHT22;8163;50.118;5.342;2023-08-21T05:42:58;20.50;68.00
16118;DHT22;8163;50.118;5.342;2023-08-21T05:45:25;20.80;68.70
16118;DHT22;8163;50.118;5.342;2023-08-21T05:47:53;21.10;69.00
16118;DHT22;8163;50.118;5.342;2023-08-21T05:50:20;21.80;69.20
16118;DHT22;8163;50.118;5.342;2023-08-21T05:52:47;22.40;69.40
16118;DHT22;8163;50.118;5.342;2023-08-21T05:55:14;23.20;69.20
16118;DHT22;8163;50.118;5.342;2023-08-21T05:57:42;24.90;69.50
16118;DHT22;8163;50.118;5.342;2023-08-21T06:00:12;26.30;69.80
16118;DHT22;8163;50.118;5.342;2023-08-21T06:02:40;27.30;69.10
16118;DHT22;8163;50.118;5.342;2023-08-21T06:05:08;28.20;69.00
16118;DHT22;8163;50.118;5.342;2023-08-21T06:07:35;28.90;69.20
16118;DHT22;8163;50.118;5.342;2023-08-21T06:10:02;29.50;68.50
16118;DHT22;8163;50.118;5.342;2023-08-21T06:12:30;29.90;68.00
16118;DHT22;8163;50.118;5.342;2023-08-21T06:14:57;30.50;69.00
16118;DHT22;8163;50.118;5.342;2023-08-21T06:17:27;29.50;69.10
16118;DHT22;8163;50.118;5.342;2023-08-21T06:19:55;28.60;69.00
16118;DHT22;8163;50.118;5.342;2023-08-21T06:22:22;28.90;69.80
16118;DHT22;8163;50.118;5.342;2023-08-21T06:24:49;29.90;69.50
16118;DHT22;8163;50.118;5.342;2023-08-21T06:27:16;31.00;68.50
16118;DHT22;8163;50.118;5.342;2023-08-21T06:29:43;31.60;69.00
16118;DHT22;8163;50.118;5.342;2023-08-21T06:32:10;32.00;68.80
16118;DHT22;8163;50.118;5.342;2023-08-21T06:34:39;32.20;68.60
16118;DHT22;8163;50.118;5.342;2023-08-21T06:37:06;31.90;69.20
16118;DHT22;8163;50.118;5.342;2023-08-21T06:39:34;32.40;68.50
16118;DHT22;8163;50.118;5.342;2023-08-21T06:42:01;32.30;69.20
16118;DHT22;8163;50.118;5.342;2023-08-21T06:44:28;32.70;68.20
16118;DHT22;8163;50.118;5.342;2023-08-21T06:46:55;33.20;68.40
16118;DHT22;8163;50.118;5.342;2023-08-21T06:49:22;33.80;68.30
16118;DHT22;8163;50.118;5.342;2023-08-21T06:51:50;34.20;68.40
16118;DHT22;8163;50.118;5.342;2023-08-21T06:54:17;34.70;68.70
16118;DHT22;8163;50.118;5.342;2023-08-21T06:56:44;35.10;68.10
16118;DHT22;8163;50.118;5.342;2023-08-21T06:59:11;35.40;66.60
16118;DHT22;8163;50.118;5.342;2023-08-21T07:01:38;35.60;66.40
16118;DHT22;8163;50.118;5.342;2023-08-21T07:04:06;35.50;66.70
16118;DHT22;8163;50.118;5.342;2023-08-21T07:06:33;35.90;66.90
16118;DHT22;8163;50.118;5.342;2023-08-21T07:09:02;36.10;66.90
16118;DHT22;8163;50.118;5.342;2023-08-21T07:11:29;36.40;67.10
16118;DHT22;8163;50.118;5.342;2023-08-21T07:13:57;36.60;66.70
16118;DHT22;8163;50.118;5.342;2023-08-21T07:16:24;36.70;66.20
16118;DHT22;8163;50.118;5.342;2023-08-21T07:18:52;36.80;65.10
16118;DHT22;8163;50.118;5.342;2023-08-21T07:21:19;37.00;65.50
16118;DHT22;8163;50.118;5.342;2023-08-21T07:23:46;37.20;64.70
16118;DHT22;8163;50.118;5.342;2023-08-21T07:26:15;37.50;63.40
16118;DHT22;8163;50.118;5.342;2023-08-21T07:28:42;37.10;63.10
16118;DHT22;8163;50.118;5.342;2023-08-21T07:31:09;37.40;61.90
16118;DHT22;8163;50.118;5.342;2023-08-21T07:33:36;37.60;62.20
16118;DHT22;8163;50.118;5.342;2023-08-21T07:36:04;37.90;62.40
16118;DHT22;8163;50.118;5.342;2023-08-21T07:38:32;38.10;62.40
16118;DHT22;8163;50.118;5.342;2023-08-21T07:41:03;38.30;61.90
16118;DHT22;8163;50.118;5.342;2023-08-21T07:43:32;38.50;61.90
16118;DHT22;8163;50.118;5.342;2023-08-21T07:46:02;38.70;60.90
16118;DHT22;8163;50.118;5.342;2023-08-21T07:48:29;37.90;60.40
16118;DHT22;8163;50.118;5.342;2023-08-21T07:50:57;38.30;59.10
16118;DHT22;8163;50.118;5.342;2023-08-21T07:53:24;38.30;58.70
16118;DHT22;8163;50.118;5.342;2023-08-21T07:55:51;38.70;58.40
16118;DHT22;8163;50.118;5.342;2023-08-21T07:58:19;38.80;58.40
16118;DHT22;8163;50.118;5.342;2023-08-21T08:00:49;37.50;59.10
16118;DHT22;8163;50.118;5.342;2023-08-21T08:03:16;35.80;58.70
16118;DHT22;8163;50.118;5.342;2023-08-21T08:05:43;35.80;58.60
16118;DHT22;8163;50.118;5.342;2023-08-21T08:08:10;36.70;58.50
16118;DHT22;8163;50.118;5.342;2023-08-21T08:10:37;36.40;58.20
16118;DHT22;8163;50.118;5.342;2023-08-21T08:13:06;36.20;58.50
16118;DHT22;8163;50.118;5.342;2023-08-21T08:15:33;36.00;58.40
16118;DHT22;8163;50.118;5.342;2023-08-21T08:18:03;36.80;58.30
16118;DHT22;8163;50.118;5.342;2023-08-21T08:20:31;34.90;58.00
16118;DHT22;8163;50.118;5.342;2023-08-21T08:22:58;36.30;58.20
16118;DHT22;8163;50.118;5.342;2023-08-21T08:25:25;37.00;58.50
16118;DHT22;8163;50.118;5.342;2023-08-21T08:27:52;37.70;58.30
16118;DHT22;8163;50.118;5.342;2023-08-21T08:30:19;38.20;58.00
16118;DHT22;8163;50.118;5.342;2023-08-21T08:32:46;38.40;57.80
16118;DHT22;8163;50.118;5.342;2023-08-21T08:35:15;38.70;57.70
16118;DHT22;8163;50.118;5.342;2023-08-21T08:37:42;38.90;57.00
16118;DHT22;8163;50.118;5.342;2023-08-21T08:40:10;39.10;56.90
16118;DHT22;8163;50.118;5.342;2023-08-21T08:42:38;39.30;56.90
16118;DHT22;8163;50.118;5.342;2023-08-21T08:45:06;39.50;56.30
16118;DHT22;8163;50.118;5.342;2023-08-21T08:47:34;39.70;56.40
16118;DHT22;8163;50.118;5.342;2023-08-21T08:50:02;39.70;55.60
16118;DHT22;8163;50.118;5.342;2023-08-21T08:52:36;39.90;55.40
16118;DHT22;8163;50.118;5.342;2023-08-21T08:55:04;39.90;55.00
16118;DHT22;8163;50.118;5.342;2023-08-21T08:57:32;39.90;53.90
16118;DHT22;8163;50.118;5.342;2023-08-21T09:00:00;39.90;54.00
16118;DHT22;8163;50.118;5.342;2023-08-21T09:02:36;39.90;53.90
16118;DHT22;8163;50.118;5.342;2023-08-21T09:05:03;40.00;53.80
16118;DHT22;8163;50.118;5.342;2023-08-21T09:07:33;39.90;53.40
16118;DHT22;8163;50.118;5.342;2023-08-21T09:10:01;39.80;53.00
16118;DHT22;8163;50.118;5.342;2023-08-21T09:12:31;39.90;52.50
16118;DHT22;8163;50.118;5.342;2023-08-21T09:14:59;39.80;52.10
16118;DHT22;8163;50.118;5.342;2023-08-21T09:17:26;39.90;52.10
16118;DHT22;8163;50.118;5.342;2023-08-21T09:19:53;40.00;51.80
16118;DHT22;8163;50.118;5.342;2023-08-21T09:22:20;40.10;51.70
16118;DHT22;8163;50.118;5.342;2023-08-21T09:25:03;40.10;51.40
16118;DHT22;8163;50.118;5.342;2023-08-21T09:27:32;40.20;51.00
16118;DHT22;8163;50.118;5.342;2023-08-21T09:30:00;40.10;50.60
16118;DHT22;8163;50.118;5.342;2023-08-21T09:32:29;39.60;50.00
16118;DHT22;8163;50.118;5.342;2023-08-21T09:34:56;39.50;49.80
16118;DHT22;8163;50.118;5.342;2023-08-21T09:37:28;39.70;50.30
16118;DHT22;8163;50.118;5.342;2023-08-21T09:40:02;39.80;50.00
16118;DHT22;8163;50.118;5.342;2023-08-21T09:42:32;40.00;49.90
16118;DHT22;8163;50.118;5.342;2023-08-21T09:45:00;40.10;49.60
16118;DHT22;8163;50.118;5.342;2023-08-21T09:47:30;40.00;49.40
16118;DHT22;8163;50.118;5.342;2023-08-21T09:49:59;40.10;49.40
16118;DHT22;8163;50.118;5.342;2023-08-21T09:52:26;39.90;48.50
16118;DHT22;8163;50.118;5.342;2023-08-21T09:54:55;40.00;48.60
16118;DHT22;8163;50.118;5.342;2023-08-21T09:57:24;40.10;48.90
16118;DHT22;8163;50.118;5.342;2023-08-21T09:59:52;40.10;48.40
16118;DHT22;8163;50.118;5.342;2023-08-21T10:02:20;40.20;48.20
16118;DHT22;8163;50.118;5.342;2023-08-21T10:04:48;40.20;47.90
16118;DHT22;8163;50.118;5.342;2023-08-21T10:07:16;40.20;47.60
16118;DHT22;8163;50.118;5.342;2023-08-21T10:09:48;40.10;47.60
16118;DHT22;8163;50.118;5.342;2023-08-21T10:12:16;40.20;47.20
16118;DHT22;8163;50.118;5.342;2023-08-21T10:14:45;40.20;47.20
16118;DHT22;8163;50.118;5.342;2023-08-21T10:17:12;40.20;47.00
16118;DHT22;8163;50.118;5.342;2023-08-21T10:19:39;40.30;47.20
16118;DHT22;8163;50.118;5.342;2023-08-21T10:22:06;40.40;47.00
16118;DHT22;8163;50.118;5.342;2023-08-21T10:24:35;40.40;46.40
16118;DHT22;8163;50.118;5.342;2023-08-21T11:02:39;40.40;43.60
16118;DHT22;8163;50.118;5.342;2023-08-21T11:05:08;40.50;44.20
16118;DHT22;8163;50.118;5.342;2023-08-21T11:07:39;40.50;44.40
16118;DHT22;8163;50.118;5.342;2023-08-21T11:10:07;40.60;44.40
16118;DHT22;8163;50.118;5.342;2023-08-21T11:12:34;40.60;44.40
16118;DHT22;8163;50.118;5.342;2023-08-21T11:15:02;40.70;44.60
16118;DHT22;8163;50.118;5.342;2023-08-21T11:17:31;40.80;44.00
16118;DHT22;8163;50.118;5.342;2023-08-21T11:20:01;40.80;43.90
16118;DHT22;8163;50.118;5.342;2023-08-21T11:22:31;40.90;43.70
16118;DHT22;8163;50.118;5.342;2023-08-21T11:24:58;40.80;43.20
16118;DHT22;8163;50.118;5.342;2023-08-21T11:27:26;40.80;42.80
16118;DHT22;8163;50.118;5.342;2023-08-21T11:29:53;40.60;42.40
16118;DHT22;8163;50.118;5.342;2023-08-21T11:32:22;40.60;42.90
16118;DHT22;8163;50.118;5.342;2023-08-21T11:34:50;40.60;43.20
16118;DHT22;8163;50.118;5.342;2023-08-21T11:37:20;40.70;43.10
16118;DHT22;8163;50.118;5.342;2023-08-21T11:39:49;40.60;42.70
16118;DHT22;8163;50.118;5.342;2023-08-21T11:42:18;40.60;42.60
16118;DHT22;8163;50.118;5.342;2023-08-21T11:44:48;40.60;42.60
16118;DHT22;8163;50.118;5.342;2023-08-21T11:47:18;40.60;42.30
16118;DHT22;8163;50.118;5.342;2023-08-21T11:49:46;40.60;42.30
16118;DHT22;8163;50.118;5.342;2023-08-21T11:52:20;40.60;42.00
16118;DHT22;8163;50.118;5.342;2023-08-21T11:54:49;40.60;41.90
16118;DHT22;8163;50.118;5.342;2023-08-21T11:57:16;40.30;41.80
16118;DHT22;8163;50.118;5.342;2023-08-21T11:59:49;40.40;41.90
16118;DHT22;8163;50.118;5.342;2023-08-21T12:02:18;40.30;41.30
16118;DHT22;8163;50.118;5.342;2023-08-21T12:04:52;39.80;40.50
16118;DHT22;8163;50.118;5.342;2023-08-21T12:07:20;39.30;40.20
16118;DHT22;8163;50.118;5.342;2023-08-21T12:09:48;39.20;40.60
16118;DHT22;8163;50.118;5.342;2023-08-21T12:12:15;39.40;40.80
16118;DHT22;8163;50.118;5.342;2023-08-21T12:14:42;39.60;41.00
16118;DHT22;8163;50.118;5.342;2023-08-21T12:17:09;39.90;41.30
16118;DHT22;8163;50.118;5.342;2023-08-21T12:19:36;40.20;41.40
16118;DHT22;8163;50.118;5.342;2023-08-21T12:22:04;40.50;41.40
16118;DHT22;8163;50.118;5.342;2023-08-21T12:24:32;40.70;41.10
16118;DHT22;8163;50.118;5.342;2023-08-21T12:26:59;40.40;40.40
16118;DHT22;8163;50.118;5.342;2023-08-21T12:29:27;40.60;40.60
16118;DHT22;8163;50.118;5.342;2023-08-21T12:31:55;40.70;40.70
16118;DHT22;8163;50.118;5.342;2023-08-21T12:34:28;40.40;40.20
16118;DHT22;8163;50.118;5.342;2023-08-21T12:36:55;39.80;39.60
16118;DHT22;8163;50.118;5.342;2023-08-21T12:39:22;39.30;38.60
16118;DHT22;8163;50.118;5.342;2023-08-21T12:41:50;39.30;39.30
16118;DHT22;8163;50.118;5.342;2023-08-21T12:44:17;39.40;39.70
16118;DHT22;8163;50.118;5.342;2023-08-21T12:46:44;39.10;39.70
16118;DHT22;8163;50.118;5.342;2023-08-21T12:49:13;38.60;38.90
16118;DHT22;8163;50.118;5.342;2023-08-21T12:51:40;38.10;38.60
16118;DHT22;8163;50.118;5.342;2023-08-21T12:54:07;37.60;38.20
16118;DHT22;8163;50.118;5.342;2023-08-21T12:56:34;37.10;38.60
16118;DHT22;8163;50.118;5.342;2023-08-21T12:59:03;36.70;37.70
16118;DHT22;8163;50.118;5.342;2023-08-21T13:01:30;36.60;37.80
16118;DHT22;8163;50.118;5.342;2023-08-21T13:04:00;36.80;38.50
16118;DHT22;8163;50.118;5.342;2023-08-21T13:06:28;37.20;39.10
16118;DHT22;8163;50.118;5.342;2023-08-21T13:08:56;37.40;39.40
16118;DHT22;8163;50.118;5.342;2023-08-21T13:11:24;37.60;39.80
16118;DHT22;8163;50.118;5.342;2023-08-21T13:13:51;37.40;39.40
16118;DHT22;8163;50.118;5.342;2023-08-21T13:16:20;37.20;38.80
16118;DHT22;8163;50.118;5.342;2023-08-21T13:18:47;37.20;39.00
16118;DHT22;8163;50.118;5.342;2023-08-21T13:21:14;37.20;39.30
16118;DHT22;8163;50.118;5.342;2023-08-21T13:23:41;36.70;38.80
16118;DHT22;8163;50.118;5.342;2023-08-21T13:26:08;36.30;38.20
16118;DHT22;8163;50.118;5.342;2023-08-21T13:28:35;36.00;37.80
16118;DHT22;8163;50.118;5.342;2023-08-21T13:31:02;35.90;38.20
16118;DHT22;8163;50.118;5.342;2023-08-21T13:33:31;36.00;38.60
16118;DHT22;8163;50.118;5.342;2023-08-21T13:35:58;36.10;38.80
16118;DHT22;8163;50.118;5.342;2023-08-21T13:38:25;36.20;39.00
16118;DHT22;8163;50.118;5.342;2023-08-21T13:40:52;36.20;39.20
16118;DHT22;8163;50.118;5.342;2023-08-21T13:43:21;36.20;39.40
16118;DHT22;8163;50.118;5.342;2023-08-21T13:45:49;36.20;39.30
16118;DHT22;8163;50.118;5.342;2023-08-21T13:48:16;36.20;39.30
16118;DHT22;8163;50.118;5.342;2023-08-21T13:50:47;36.20;39.30
16118;DHT22;8163;50.118;5.342;2023-08-21T13:53:15;36.30;39.00
16118;DHT22;8163;50.118;5.342;2023-08-21T13:55:42;36.20;38.90
16118;DHT22;8163;50.118;5.342;2023-08-21T13:58:09;36.10;38.70
16118;DHT22;8163;50.118;5.342;2023-08-21T14:00:36;36.00;38.80
16118;DHT22;8163;50.118;5.342;2023-08-21T14:03:04;35.90;38.70
16118;DHT22;8163;50.118;5.342;2023-08-21T14:05:31;35.80;38.60
16118;DHT22;8163;50.118;5.342;2023-08-21T14:08:00;35.60;38.40
16118;DHT22;8163;50.118;5.342;2023-08-21T14:10:27;35.50;38.60
16118;DHT22;8163;50.118;5.342;2023-08-21T14:12:56;35.50;38.60
16118;DHT22;8163;50.118;5.342;2023-08-21T14:15:24;35.40;38.50
16118;DHT22;8163;50.118;5.342;2023-08-21T14:17:51;35.20;38.30
16118;DHT22;8163;50.118;5.342;2023-08-21T14:20:18;35.10;37.80
16118;DHT22;8163;50.118;5.342;2023-08-21T14:22:45;35.00;38.10
16118;DHT22;8163;50.118;5.342;2023-08-21T14:25:14;34.90;37.90
16118;DHT22;8163;50.118;5.342;2023-08-21T14:27:42;34.80;37.90
16118;DHT22;8163;50.118;5.342;2023-08-21T14:30:09;34.70;37.90
16118;DHT22;8163;50.118;5.342;2023-08-21T14:32:36;34.70;38.00
16118;DHT22;8163;50.118;5.342;2023-08-21T14:35:04;34.60;37.90
16118;DHT22;8163;50.118;5.342;2023-08-21T14:37:33;34.50;37.80
16118;DHT22;8163;50.118;5.342;2023-08-21T14:40:00;34.30;37.70
16118;DHT22;8163;50.118;5.342;2023-08-21T14:42:33;34.10;37.60
16118;DHT22;8163;50.118;5.342;2023-08-21T14:45:01;34.00;37.60
16118;DHT22;8163;50.118;5.342;2023-08-21T14:47:28;33.90;37.80
16118;DHT22;8163;50.118;5.342;2023-08-21T14:49:56;33.80;37.80
16118;DHT22;8163;50.118;5.342;2023-08-21T14:52:29;33.70;37.80
16118;DHT22;8163;50.118;5.342;2023-08-21T14:54:56;33.60;37.80
16118;DHT22;8163;50.118;5.342;2023-08-21T14:57:23;33.60;37.80
16118;DHT22;8163;50.118;5.342;2023-08-21T15:02:49;33.30;37.90
16118;DHT22;8163;50.118;5.342;2023-08-21T15:05:16;33.00;37.90
16118;DHT22;8163;50.118;5.342;2023-08-21T15:07:43;32.90;38.10
16118;DHT22;8163;50.118;5.342;2023-08-21T15:10:10;32.80;38.10
16118;DHT22;8163;50.118;5.342;2023-08-21T15:12:37;32.80;38.30
16118;DHT22;8163;50.118;5.342;2023-08-21T15:15:05;32.70;38.40
16118;DHT22;8163;50.118;5.342;2023-08-21T15:17:32;32.60;38.30
16118;DHT22;8163;50.118;5.342;2023-08-21T15:20:01;32.50;38.30
16118;DHT22;8163;50.118;5.342;2023-08-21T15:22:30;32.40;38.40
16118;DHT22;8163;50.118;5.342;2023-08-21T15:24:57;32.30;38.60
16118;DHT22;8163;50.118;5.342;2023-08-21T15:27:24;32.10;38.60
16118;DHT22;8163;50.118;5.342;2023-08-21T15:29:51;32.10;38.60
16118;DHT22;8163;50.118;5.342;2023-08-21T15:32:18;32.00;38.90
16118;DHT22;8163;50.118;5.342;2023-08-21T15:34:45;32.00;39.10
16118;DHT22;8163;50.118;5.342;2023-08-21T15:37:14;31.90;39.10
16118;DHT22;8163;50.118;5.342;2023-08-21T15:39:41;31.90;39.30
16118;DHT22;8163;50.118;5.342;2023-08-21T15:42:08;31.80;39.30
16118;DHT22;8163;50.118;5.342;2023-08-21T15:44:35;31.70;39.40
16118;DHT22;8163;50.118;5.342;2023-08-21T15:47:02;31.70;39.40
16118;DHT22;8163;50.118;5.342;2023-08-21T15:49:29;31.60;39.30
16118;DHT22;8163;50.118;5.342;2023-08-21T15:51:56;31.50;39.30
16118;DHT22;8163;50.118;5.342;2023-08-21T15:54:30;31.40;39.20
16118;DHT22;8163;50.118;5.342;2023-08-21T15:56:58;31.40;39.20
16118;DHT22;8163;50.118;5.342;2023-08-21T15:59:25;31.30;39.10
16118;DHT22;8163;50.118;5.342;2023-08-21T16:01:52;31.20;39.10
16118;DHT22;8163;50.118;5.342;2023-08-21T16:04:19;31.10;39.30
16118;DHT22;8163;50.118;5.342;2023-08-21T16:06:47;31.10;39.50
16118;DHT22;8163;50.118;5.342;2023-08-21T16:09:14;30.90;39.50
16118;DHT22;8163;50.118;5.342;2023-08-21T16:11:44;30.90;39.50
16118;DHT22;8163;50.118;5.342;2023-08-21T16:14:11;30.90;39.60
16118;DHT22;8163;50.118;5.342;2023-08-21T16:16:39;30.80;39.50
16118;DHT22;8163;50.118;5.342;2023-08-21T16:19:06;30.70;39.70
16118;DHT22;8163;50.118;5.342;2023-08-21T16:21:33;30.70;39.90
16118;DHT22;8163;50.118;5.342;2023-08-21T16:24:02;30.60;40.00
16118;DHT22;8163;50.118;5.342;2023-08-21T16:26:32;30.60;40.10